To NAV CANADA Home Page Login to a new session Search on AWWS site Feedback and Comments Disclaimer Vers la page française équivalente Tips FAQ What's new on the site To the Forecasts and Observations / NOTAM section To "File a Flight Plan" website Publications and other links Update of the User's profile FIC Telephone Numbers My Weather Data Folder Route Weather Data Regional Weather Data Local Weather Data To the Forecasts and Observations / NOTAM section
Request Generated 09/24/2016 at 20:51:04 UTC . Weather information available at that time is displayed.

METAR/TAF

ARVIAT/NU    (show WxCam)

METAR CYEK 242000Z 20008KT 15SM OVC130 11/08 A3008 RMK AS8
12.1/6.0/0.0/LST STFD OBS/NXT 251400Z SLP189=
METAR CYEK 241900Z 20007KT 15SM SCT130 OVC270 10/08 A3008 RMK AS4CS4
SLP188=
METAR CYEK 241800Z 19007KT 15SM FEW130 12/08 A3008 RMK AC1 SLP190=

TAF CYEK 241738Z 2418/2506 21006KT P6SM SKC
BECMG 2500/2502 14012G22KT
RMK NXT FCST BY 250000Z=
Your time UTC time
Weather data provided by Environment Canada and NAV CANADA